Marlborough, NH (03455)

7:13 AM EST on March 02, 2015 (GMT -0500)
APRSWXNET Marlborough NH US | Change Station
CLOSE
Current Station
Personal Weather Station
Location: Marlborough, NH
Elevation: 754 ft
Nearby Weather Stations

Elev 754 ft 42.91 °N, 72.22 °W | Updated 37 minutes ago

Partly Cloudy
Partly Cloudy
16 °F
Feels Like 16 °F
N
0
Wind Variable Wind from WSW
Gusts 0.0 mph

Today
High -- | Low -- °F
--% Chance of Precip.
Yesterday
High -- | Low -- °F
Precip. -- in
6:23 AM 5:39 PM
Waxing Gibbous, 91% visible
Pressure 29.94 in
Visibility 2.5 miles
Clouds Overcast 300 ft
Windchill 16 °F
Dew Point 14 °F
Humidity 92%
Rainfall 0.00 in
Snow Depth Not available.
UV 0 out of 12
Pollen .30 out of 12
Air Quality Not available.
Flu Activity Not available.
METAR KEEN 021155Z AUTO 00000KT 2 1/2SM OVC003 M09/M11 A2994 RMK AO1 11060 21110 57010

More Conditions Fewer Conditions

Pressure 29.94 in
Visibility 2.5 miles
Clouds Overcast 300 ft
Windchill 16 °F
Dew Point 14 °F
Humidity 92%
Rainfall 0.00 in
Snow Depth Not available.
UV 0 out of 12
Pollen .30 out of 12
Air Quality Not available.
Flu Activity Not available.
METAR KEEN 021155Z AUTO 00000KT 2 1/2SM OVC003 M09/M11 A2994 RMK AO1 11060 21110 57010

More Conditions Fewer Conditions

10-Day Weather Forecast

Almanac

Astronomy

Mar. 02, 2015 Rise Set
Actual Time
Civil Twilight
Nautical Twilight
Astronomical Twilight
Moon
Length of Visible Light
Length of Day
Tomorrow will be .
, % of the Moon is Illuminated

Today's Extremes

State Highs State Lows

Community

WunderPhotos

Upload Photos

1,801,770 photos uploaded!

WunderBlogs® & News

Nearby

Air Quality

  Air Quality AQ Index Pollutant
Not available.

Snow Depth

Station Depth Elevation

Earthquake Activity

City Distance Mag. Time & Date
Minimum magnitude displayed is 2.5.

Coastal Water Temperatures

Place Temperature

Nearby Weather Stations